Time;durP1;ratioP1;P1;durP2;ratioP2;P2;SDS_P1;SDS_P2;PMS_P1;PMS_P2;Temp;Humidity;BMP_temperature;BMP_pressure;BME280_temperature;BME280_humidity;BME280_pressure;Samples;Min_cycle;Max_cycle;Signal;HPM_P1;HPM_P2
2020/12/15 00:01:06;;;;;;;3.05;2.50;;;9.60;99.90;;;;;;5126935;27;20196;-76
2020/12/15 00:03:33;;;;;;;3.95;2.90;;;9.70;99.90;;;;;;5126673;27;20203;-74
2020/12/15 00:05:59;;;;;;;4.38;3.00;;;9.60;99.90;;;;;;5124893;27;20656;-73
2020/12/15 00:08:26;;;;;;;2.90;2.70;;;9.60;99.90;;;;;;5113442;27;20196;-74
2020/12/15 00:10:53;;;;;;;3.13;2.85;;;9.70;99.90;;;;;;5117073;27;20197;-73
2020/12/15 00:13:19;;;;;;;3.53;2.45;;;9.70;99.90;;;;;;5113329;28;20208;-73
2020/12/15 00:15:45;;;;;;;3.15;2.85;;;9.70;99.90;;;;;;5113211;28;20632;-73
2020/12/15 00:18:11;;;;;;;4.22;2.95;;;9.60;99.90;;;;;;5114046;27;20197;-73
2020/12/15 00:20:40;;;;;;;3.00;2.70;;;9.70;99.90;;;;;;5131043;27;20669;-73
2020/12/15 00:23:08;;;;;;;3.28;2.88;;;9.70;99.90;;;;;;5118384;27;20192;-73
2020/12/15 00:25:35;;;;;;;4.45;2.78;;;9.70;99.90;;;;;;5114953;27;20213;-73
2020/12/15 00:28:01;;;;;;;2.45;2.25;;;9.60;99.90;;;;;;5114263;27;20199;-73
2020/12/15 00:30:27;;;;;;;3.30;2.80;;;9.60;99.90;;;;;;5118864;27;20200;-74
2020/12/15 00:32:54;;;;;;;5.03;3.13;;;9.70;99.90;;;;;;5125164;27;20196;-74
2020/12/15 00:35:20;;;;;;;2.58;2.38;;;9.60;99.90;;;;;;5133458;27;20196;-74
2020/12/15 00:37:47;;;;;;;3.40;3.10;;;9.70;99.90;;;;;;5125724;27;20890;-74
2020/12/15 00:40:13;;;;;;;5.18;2.80;;;9.70;99.90;;;;;;5120920;27;20246;-74
2020/12/15 00:42:40;;;;;;;2.88;2.42;;;9.70;99.90;;;;;;5128907;27;20200;-74
2020/12/15 00:45:06;;;;;;;2.85;2.38;;;9.70;99.90;;;;;;5112667;28;20233;-73
2020/12/15 00:47:33;;;;;;;3.58;2.80;;;9.60;99.90;;;;;;5116256;27;20197;-74
2020/12/15 00:49:59;;;;;;;3.00;2.60;;;9.70;99.90;;;;;;5115975;27;20188;-73
2020/12/15 00:52:26;;;;;;;3.13;2.40;;;9.70;99.90;;;;;;5116452;27;20197;-73
2020/12/15 00:54:52;;;;;;;2.75;2.28;;;9.70;99.90;;;;;;5124467;27;20191;-74
2020/12/15 00:57:19;;;;;;;3.53;2.60;;;9.70;99.90;;;;;;5118152;27;20536;-73
2020/12/15 00:59:46;;;;;;;2.33;2.13;;;9.70;99.90;;;;;;5118360;27;20222;-73
2020/12/15 01:02:12;;;;;;;2.38;2.05;;;9.70;99.90;;;;;;5130413;27;20211;-73
2020/12/15 01:04:39;;;;;;;2.25;2.05;;;9.70;99.90;;;;;;5130219;27;20212;-73
2020/12/15 01:07:05;;;;;;;3.70;2.63;;;9.70;99.90;;;;;;5130741;27;20207;-75
2020/12/15 01:09:31;;;;;;;3.50;2.38;;;9.70;99.90;;;;;;5116226;27;20201;-75
2020/12/15 01:11:58;;;;;;;3.75;2.30;;;9.70;99.90;;;;;;5112602;28;20624;-75
2020/12/15 01:14:24;;;;;;;3.90;2.50;;;9.70;99.90;;;;;;5132185;28;20388;-76
2020/12/15 01:16:51;;;;;;;2.75;2.10;;;9.70;99.90;;;;;;5124154;27;20212;-75
2020/12/15 01:19:17;;;;;;;2.97;2.65;;;9.70;99.90;;;;;;5118631;27;20203;-76
2020/12/15 01:21:44;;;;;;;3.20;2.30;;;9.70;99.90;;;;;;5121346;27;20223;-76
2020/12/15 01:24:10;;;;;;;2.50;2.25;;;9.70;99.90;;;;;;5124203;27;20188;-76
2020/12/15 01:26:36;;;;;;;3.00;2.40;;;9.70;99.90;;;;;;5124283;28;20204;-74
2020/12/15 01:29:03;;;;;;;2.10;1.75;;;9.70;99.90;;;;;;5112588;28;20208;-74
2020/12/15 01:31:30;;;;;;;1.65;1.55;;;9.70;99.90;;;;;;5112443;28;20200;-74
2020/12/15 01:33:58;;;;;;;2.88;2.25;;;9.70;99.90;;;;;;5131575;28;20196;-73
2020/12/15 01:36:29;;;;;;;2.00;1.80;;;9.70;99.90;;;;;;5128373;27;20258;-75
2020/12/15 01:38:56;;;;;;;2.50;1.90;;;9.70;99.90;;;;;;5117467;28;20223;-75
2020/12/15 01:41:22;;;;;;;2.33;1.70;;;9.70;99.90;;;;;;5114814;27;20200;-76
2020/12/15 01:43:53;;;;;;;2.25;1.70;;;9.70;99.90;;;;;;5112470;28;20532;-76
2020/12/15 01:46:19;;;;;;;2.53;2.25;;;9.70;99.90;;;;;;5117055;28;20651;-76
2020/12/15 01:48:46;;;;;;;1.77;1.65;;;9.70;99.90;;;;;;5117699;28;20192;-76
2020/12/15 01:51:14;;;;;;;2.63;1.70;;;9.80;99.90;;;;;;5132843;27;20200;-76
2020/12/15 01:53:41;;;;;;;2.67;1.90;;;9.80;99.90;;;;;;5124798;27;20536;-74
2020/12/15 01:56:07;;;;;;;2.40;2.20;;;9.80;99.90;;;;;;5112427;28;20536;-73
2020/12/15 01:58:34;;;;;;;2.97;2.28;;;9.80;99.90;;;;;;5121139;27;20212;-75
2020/12/15 02:01:00;;;;;;;4.60;1.85;;;9.80;99.90;;;;;;5131174;27;20200;-75
2020/12/15 02:03:27;;;;;;;1.75;1.52;;;9.80;99.90;;;;;;5129004;27;20204;-75
2020/12/15 02:05:53;;;;;;;1.88;1.70;;;9.80;99.90;;;;;;5130315;27;20242;-75
2020/12/15 02:08:20;;;;;;;2.60;2.00;;;9.80;99.90;;;;;;5115898;28;20200;-75
2020/12/15 02:10:47;;;;;;;2.30;1.63;;;9.80;99.90;;;;;;5114260;28;20208;-75
2020/12/15 02:13:13;;;;;;;1.95;1.65;;;9.80;99.90;;;;;;5124188;27;20195;-75
2020/12/15 02:15:40;;;;;;;2.20;1.77;;;9.80;99.90;;;;;;5127604;27;20185;-75
2020/12/15 02:18:06;;;;;;;2.03;1.77;;;9.80;99.90;;;;;;5118823;27;20760;-75
2020/12/15 02:20:33;;;;;;;2.05;1.40;;;9.80;99.90;;;;;;5129142;27;20211;-75
2020/12/15 02:23:00;;;;;;;2.38;1.95;;;9.70;99.90;;;;;;5116488;27;20203;-75
2020/12/15 02:25:26;;;;;;;4.07;1.70;;;9.70;99.90;;;;;;5121899;27;20223;-74
2020/12/15 02:27:52;;;;;;;3.65;2.42;;;9.70;99.90;;;;;;5121741;27;20197;-74
2020/12/15 02:30:19;;;;;;;1.70;1.60;;;9.70;99.90;;;;;;5115023;28;20212;-75
2020/12/15 02:32:45;;;;;;;1.88;1.70;;;9.80;99.90;;;;;;5115053;28;20548;-75
2020/12/15 02:35:11;;;;;;;1.58;1.48;;;9.70;99.90;;;;;;5127806;27;20192;-74
2020/12/15 02:37:37;;;;;;;1.50;1.40;;;9.70;99.90;;;;;;5118331;27;20196;-74
2020/12/15 02:40:06;;;;;;;2.13;1.60;;;9.80;99.90;;;;;;5114915;28;20560;-75
2020/12/15 02:42:33;;;;;;;2.38;1.80;;;9.70;99.90;;;;;;5123139;27;20197;-74
2020/12/15 02:44:59;;;;;;;2.20;1.92;;;9.70;99.90;;;;;;5115032;27;20220;-74
2020/12/15 02:47:26;;;;;;;2.05;1.65;;;9.80;99.90;;;;;;5121872;27;20234;-73
2020/12/15 02:49:53;;;;;;;2.22;1.70;;;9.70;99.90;;;;;;5128695;27;20196;-73
2020/12/15 02:52:20;;;;;;;3.38;2.42;;;9.70;99.90;;;;;;5135297;27;20196;-73
2020/12/15 02:54:46;;;;;;;2.00;1.80;;;9.80;99.90;;;;;;5135670;27;20272;-74
2020/12/15 02:57:14;;;;;;;1.88;1.77;;;9.80;99.90;;;;;;5123682;27;20207;-74
2020/12/15 02:59:40;;;;;;;4.18;1.58;;;9.80;99.90;;;;;;5114987;28;20201;-75
2020/12/15 03:02:06;;;;;;;2.05;1.63;;;9.80;99.90;;;;;;5114589;28;20664;-76
2020/12/15 03:04:32;;;;;;;1.80;1.50;;;9.80;99.90;;;;;;5118461;27;20215;-73
2020/12/15 03:06:59;;;;;;;3.25;1.75;;;9.80;99.90;;;;;;5130916;27;20203;-73
2020/12/15 03:09:25;;;;;;;1.98;1.60;;;9.80;99.90;;;;;;5119046;27;20200;-74
2020/12/15 03:11:55;;;;;;;1.80;1.42;;;9.80;99.90;;;;;;5120865;27;20207;-73
2020/12/15 03:14:22;;;;;;;1.73;1.58;;;9.80;99.90;;;;;;5114723;28;20227;-74
2020/12/15 03:16:48;;;;;;;1.77;1.58;;;9.80;99.90;;;;;;5119112;27;20199;-72
2020/12/15 03:19:14;;;;;;;2.30;1.90;;;9.80;99.90;;;;;;5116793;27;20205;-73
2020/12/15 03:21:41;;;;;;;2.17;1.63;;;9.80;99.90;;;;;;5120313;27;20617;-73
2020/12/15 03:24:07;;;;;;;2.42;2.05;;;9.80;99.90;;;;;;5135105;27;20211;-74
2020/12/15 03:26:34;;;;;;;1.40;1.25;;;9.80;99.90;;;;;;5120585;27;20207;-74
2020/12/15 03:29:00;;;;;;;1.45;1.33;;;9.80;99.90;;;;;;5127265;27;20231;-74
2020/12/15 03:31:27;;;;;;;2.45;1.85;;;9.80;99.90;;;;;;5123989;27;20200;-74
2020/12/15 03:33:53;;;;;;;1.65;1.50;;;9.80;99.90;;;;;;5134899;27;20227;-74
2020/12/15 03:36:19;;;;;;;2.00;1.60;;;9.80;99.90;;;;;;5127249;27;20215;-75
2020/12/15 03:38:46;;;;;;;1.73;1.50;;;9.80;99.90;;;;;;5123942;27;20252;-75
2020/12/15 03:41:12;;;;;;;1.73;1.60;;;9.80;99.90;;;;;;5131531;27;20196;-75
2020/12/15 03:43:38;;;;;;;2.75;1.65;;;9.90;99.90;;;;;;5113667;27;20201;-74
2020/12/15 03:46:04;;;;;;;1.50;1.40;;;9.90;99.90;;;;;;5116249;27;20238;-74
2020/12/15 03:48:32;;;;;;;1.85;1.42;;;9.80;99.90;;;;;;5127279;27;20192;-74
2020/12/15 03:50:58;;;;;;;1.73;1.30;;;9.80;99.90;;;;;;5132551;27;20208;-75
2020/12/15 03:53:24;;;;;;;1.50;1.40;;;9.80;99.90;;;;;;5124470;27;20211;-75
2020/12/15 03:55:50;;;;;;;1.45;1.23;;;9.80;99.90;;;;;;5113592;27;20200;-75
2020/12/15 03:58:18;;;;;;;1.40;1.30;;;9.90;99.90;;;;;;5122451;27;20204;-75
2020/12/15 04:00:44;;;;;;;1.70;1.60;;;9.90;99.90;;;;;;5118075;27;20522;-75
2020/12/15 04:03:10;;;;;;;2.05;1.60;;;9.90;99.90;;;;;;5123691;27;20214;-72
2020/12/15 04:05:37;;;;;;;1.92;1.30;;;9.90;99.90;;;;;;5134204;27;20239;-73
2020/12/15 04:08:04;;;;;;;2.50;1.65;;;9.80;99.90;;;;;;5119948;27;20197;-73
2020/12/15 04:10:31;;;;;;;1.85;1.58;;;9.80;99.90;;;;;;5114654;27;20223;-72
2020/12/15 04:12:57;;;;;;;1.73;1.63;;;9.80;99.90;;;;;;5113255;28;20200;-73
2020/12/15 04:15:24;;;;;;;2.15;1.30;;;9.80;99.90;;;;;;5113871;27;20200;-73
2020/12/15 04:17:50;;;;;;;1.95;1.48;;;9.90;99.90;;;;;;5123295;27;20195;-74
2020/12/15 04:20:17;;;;;;;2.08;1.80;;;9.90;99.90;;;;;;5122016;27;20196;-74
2020/12/15 04:22:44;;;;;;;2.20;1.75;;;9.80;99.90;;;;;;5113203;28;20288;-74
2020/12/15 04:25:10;;;;;;;2.35;2.03;;;9.90;99.90;;;;;;5117449;27;20203;-74
2020/12/15 04:27:36;;;;;;;1.70;1.60;;;9.90;99.90;;;;;;5123813;27;20632;-74
2020/12/15 04:30:04;;;;;;;1.75;1.50;;;9.90;99.90;;;;;;5118248;27;20197;-74
2020/12/15 04:32:30;;;;;;;4.68;2.25;;;9.90;99.90;;;;;;5112517;28;20193;-73
2020/12/15 04:34:57;;;;;;;1.80;1.70;;;9.90;99.90;;;;;;5113036;28;20476;-73
2020/12/15 04:37:23;;;;;;;1.85;1.45;;;9.90;99.90;;;;;;5118303;27;20208;-73
2020/12/15 04:39:50;;;;;;;1.58;1.38;;;9.80;99.90;;;;;;5119713;27;20236;-73
2020/12/15 04:42:18;;;;;;;2.13;1.65;;;9.80;99.90;;;;;;5115850;27;20204;-73
2020/12/15 04:44:46;;;;;;;1.65;1.35;;;9.80;99.90;;;;;;5113272;28;20227;-74
2020/12/15 04:47:15;;;;;;;1.92;1.45;;;9.80;99.90;;;;;;5117456;27;20746;-73
2020/12/15 04:49:54;;;;;;;1.63;1.52;;;9.80;99.90;;;;;;5125093;27;20208;-74
2020/12/15 04:52:23;;;;;;;2.10;1.60;;;9.80;99.90;;;;;;5127647;27;20184;-74
2020/12/15 04:54:51;;;;;;;2.50;1.70;;;9.80;99.90;;;;;;5118511;27;20193;-73
2020/12/15 04:57:21;;;;;;;2.10;1.60;;;9.80;99.90;;;;;;5120048;27;20207;-74
2020/12/15 04:59:49;;;;;;;2.03;1.77;;;9.80;99.90;;;;;;5116002;27;20541;-74
2020/12/15 05:02:17;;;;;;;1.92;1.45;;;9.80;99.90;;;;;;5112316;28;20229;-74
2020/12/15 05:04:44;;;;;;;1.60;1.50;;;9.80;99.90;;;;;;5115556;27;20215;-74
2020/12/15 05:07:12;;;;;;;1.50;1.40;;;9.80;99.90;;;;;;5121377;28;20191;-74
2020/12/15 05:09:38;;;;;;;1.58;1.48;;;9.80;99.90;;;;;;5117815;27;20641;-74
2020/12/15 05:12:06;;;;;;;1.50;1.40;;;9.80;99.90;;;;;;5112490;28;20200;-74
2020/12/15 05:14:33;;;;;;;1.92;1.73;;;9.80;99.90;;;;;;5113450;28;20189;-73
2020/12/15 05:16:59;;;;;;;2.75;1.77;;;9.80;99.90;;;;;;5127524;27;20228;-73
2020/12/15 05:19:25;;;;;;;1.60;1.50;;;9.80;99.90;;;;;;5127645;27;20200;-72
2020/12/15 05:21:53;;;;;;;1.80;1.70;;;9.80;99.90;;;;;;5128685;27;20185;-74
2020/12/15 05:24:22;;;;;;;2.75;1.30;;;9.70;99.90;;;;;;5116974;28;20199;-72
2020/12/15 05:26:48;;;;;;;2.30;1.80;;;9.70;99.90;;;;;;5118546;27;20264;-73
2020/12/15 05:29:19;;;;;;;1.48;1.38;;;9.70;99.90;;;;;;5132177;27;20252;-73
2020/12/15 05:31:45;;;;;;;1.73;1.45;;;9.70;99.90;;;;;;5132952;27;20199;-73
2020/12/15 05:34:13;;;;;;;1.70;1.50;;;9.80;99.90;;;;;;5131441;27;20207;-75
2020/12/15 05:36:54;;;;;;;2.78;1.63;;;9.70;99.90;;;;;;5111507;28;20193;-75
2020/12/15 05:39:21;;;;;;;1.55;1.20;;;9.70;99.90;;;;;;5117285;27;20250;-73
2020/12/15 05:41:58;;;;;;;2.10;1.50;;;9.70;99.90;;;;;;5111970;28;20217;-74
2020/12/15 05:44:26;;;;;;;1.40;1.30;;;9.80;99.90;;;;;;5112921;28;20540;-74
2020/12/15 05:46:59;;;;;;;1.73;1.60;;;9.70;99.90;;;;;;5120225;27;20277;-74
2020/12/15 05:49:28;;;;;;;1.73;1.38;;;9.70;99.90;;;;;;5133195;27;20416;-75
2020/12/15 05:51:54;;;;;;;1.77;1.25;;;9.70;99.90;;;;;;5122805;27;20198;-77
2020/12/15 05:54:20;;;;;;;1.60;1.50;;;9.70;99.90;;;;;;5117107;27;20578;-76
2020/12/15 05:56:47;;;;;;;1.70;1.60;;;9.70;99.90;;;;;;5128014;27;20261;-75
2020/12/15 05:59:21;;;;;;;1.50;1.40;;;9.70;99.90;;;;;;5131634;27;20193;-74
2020/12/15 06:01:51;;;;;;;1.88;1.42;;;9.70;99.90;;;;;;5116376;28;20207;-75
2020/12/15 06:04:18;;;;;;;1.27;1.17;;;9.80;99.90;;;;;;5121396;27;20224;-75
2020/12/15 06:06:45;;;;;;;1.80;1.15;;;9.80;99.90;;;;;;5122386;27;20309;-74
2020/12/15 06:09:13;;;;;;;1.35;1.25;;;9.70;99.90;;;;;;5127241;27;20200;-74
2020/12/15 06:11:41;;;;;;;1.75;1.50;;;9.70;99.90;;;;;;5116919;27;20208;-75
2020/12/15 06:14:08;;;;;;;1.83;1.60;;;9.70;99.90;;;;;;5124408;27;20201;-75
2020/12/15 06:16:35;;;;;;;1.45;1.33;;;9.80;99.90;;;;;;5127532;27;20197;-75
2020/12/15 06:19:05;;;;;;;1.50;1.40;;;9.70;99.90;;;;;;5115445;28;20197;-75
2020/12/15 06:21:32;;;;;;;1.65;1.50;;;9.80;99.90;;;;;;5125713;27;20184;-75
2020/12/15 06:24:03;;;;;;;2.08;1.42;;;9.70;99.90;;;;;;5128027;27;20200;-74
2020/12/15 06:26:30;;;;;;;1.88;1.70;;;9.70;99.90;;;;;;5115662;27;20783;-75
2020/12/15 06:29:01;;;;;;;2.08;1.65;;;9.70;99.90;;;;;;5115550;27;20575;-75
2020/12/15 06:31:27;;;;;;;1.52;1.38;;;9.70;99.90;;;;;;5115694;28;20557;-74
2020/12/15 06:33:55;;;;;;;2.28;1.60;;;9.70;99.90;;;;;;5117299;27;20192;-74
2020/12/15 06:36:27;;;;;;;1.70;1.38;;;9.70;99.90;;;;;;5115255;28;20204;-73
2020/12/15 06:38:53;;;;;;;1.80;1.55;;;9.70;99.90;;;;;;5128355;27;20200;-73
2020/12/15 06:41:21;;;;;;;1.65;1.52;;;9.70;99.90;;;;;;5133838;27;20196;-73
2020/12/15 06:43:47;;;;;;;1.70;1.50;;;9.70;99.90;;;;;;5121336;27;20205;-73
2020/12/15 06:46:14;;;;;;;3.25;1.67;;;9.70;99.90;;;;;;5126738;27;20224;-73
2020/12/15 06:48:43;;;;;;;3.28;1.90;;;9.70;99.90;;;;;;5120141;27;20205;-74
2020/12/15 06:51:10;;;;;;;2.42;1.85;;;9.70;99.90;;;;;;5127608;27;20222;-73
2020/12/15 06:53:39;;;;;;;1.73;1.40;;;9.70;99.90;;;;;;5131067;27;20207;-73
2020/12/15 06:56:05;;;;;;;1.50;1.40;;;9.70;99.90;;;;;;5116128;27;20189;-73
2020/12/15 06:58:32;;;;;;;1.67;1.50;;;9.80;99.90;;;;;;5114807;28;20199;-73
2020/12/15 07:00:58;;;;;;;1.83;1.65;;;9.80;99.90;;;;;;5115476;27;20217;-73
2020/12/15 07:03:34;;;;;;;2.17;1.70;;;9.80;99.90;;;;;;5120300;27;20197;-73
2020/12/15 07:06:13;;;;;;;1.83;1.40;;;9.80;99.90;;;;;;5115273;27;20595;-73
2020/12/15 07:08:40;;;;;;;1.85;1.75;;;9.80;99.90;;;;;;5114521;28;20204;-76
2020/12/15 07:11:06;;;;;;;4.50;2.17;;;9.80;99.90;;;;;;5117859;27;20212;-76
2020/12/15 07:13:33;;;;;;;1.63;1.50;;;9.80;99.90;;;;;;5118942;27;20200;-75
2020/12/15 07:15:59;;;;;;;1.60;1.40;;;9.80;99.90;;;;;;5114483;28;20223;-75
2020/12/15 07:18:25;;;;;;;1.55;1.45;;;9.80;99.90;;;;;;5119800;27;20261;-75
2020/12/15 07:20:52;;;;;;;3.30;1.90;;;9.80;99.90;;;;;;5117270;27;20595;-75
2020/12/15 07:23:18;;;;;;;1.67;1.42;;;9.90;99.90;;;;;;5123934;27;20216;-75
2020/12/15 07:25:45;;;;;;;1.50;1.40;;;9.90;99.90;;;;;;5114509;28;20281;-75
2020/12/15 07:28:12;;;;;;;1.50;1.30;;;9.80;99.90;;;;;;5121925;27;20196;-75
2020/12/15 07:30:39;;;;;;;1.45;1.17;;;9.80;99.90;;;;;;5132849;27;20203;-75
2020/12/15 07:33:06;;;;;;;1.55;1.25;;;9.80;99.90;;;;;;5130942;27;20836;-75
2020/12/15 07:35:34;;;;;;;1.95;1.58;;;9.80;99.90;;;;;;5130345;27;20765;-75
2020/12/15 07:38:03;;;;;;;1.80;1.55;;;9.80;99.90;;;;;;5118899;27;20220;-75
2020/12/15 07:40:30;;;;;;;1.90;1.48;;;9.80;99.90;;;;;;5116957;27;20225;-75
2020/12/15 07:42:59;;;;;;;2.00;1.77;;;9.80;99.90;;;;;;5125873;27;20218;-75
2020/12/15 07:45:28;;;;;;;1.80;1.40;;;9.80;99.90;;;;;;5113722;28;20864;-75
2020/12/15 07:47:55;;;;;;;1.88;1.30;;;9.80;99.90;;;;;;5114045;27;20204;-75
2020/12/15 07:50:29;;;;;;;1.67;1.52;;;9.80;99.90;;;;;;5115637;27;20246;-75
2020/12/15 07:52:56;;;;;;;1.50;1.40;;;9.80;99.90;;;;;;5129854;27;20223;-76
2020/12/15 07:55:23;;;;;;;2.03;1.83;;;9.80;99.90;;;;;;5113927;27;20193;-76
2020/12/15 07:57:50;;;;;;;1.60;1.50;;;9.80;99.90;;;;;;5114062;28;20253;-76
2020/12/15 08:00:20;;;;;;;1.45;1.35;;;9.80;99.90;;;;;;5118256;27;20703;-76
2020/12/15 08:02:48;;;;;;;1.67;1.40;;;9.80;99.90;;;;;;5113365;27;20197;-76
2020/12/15 08:05:16;;;;;;;2.05;1.85;;;9.80;99.90;;;;;;5121733;27;20212;-76
2020/12/15 08:07:46;;;;;;;1.40;1.25;;;9.80;99.90;;;;;;5117221;27;20197;-76
2020/12/15 08:10:13;;;;;;;2.47;2.05;;;9.80;99.90;;;;;;5124574;27;20204;-76
2020/12/15 08:12:41;;;;;;;2.22;2.03;;;9.80;99.90;;;;;;5127492;27;20197;-76
2020/12/15 08:15:08;;;;;;;1.45;1.20;;;9.80;99.90;;;;;;5113291;28;20628;-76
2020/12/15 08:17:38;;;;;;;1.60;1.35;;;9.80;99.90;;;;;;5112877;27;20215;-76
2020/12/15 08:20:06;;;;;;;1.73;1.60;;;9.80;99.90;;;;;;5120298;27;20664;-77
2020/12/15 08:22:38;;;;;;;2.55;2.25;;;9.90;99.90;;;;;;5131487;27;20628;-73
2020/12/15 08:25:04;;;;;;;2.05;1.88;;;9.90;99.90;;;;;;5133563;27;20220;-73
2020/12/15 08:27:34;;;;;;;1.45;1.35;;;9.80;99.90;;;;;;5126008;27;20196;-73
2020/12/15 08:30:00;;;;;;;1.83;1.63;;;9.90;99.90;;;;;;5125548;27;20275;-73
2020/12/15 08:32:31;;;;;;;1.75;1.20;;;9.90;99.90;;;;;;5113667;27;20525;-74
2020/12/15 08:35:02;;;;;;;2.88;1.63;;;9.90;99.90;;;;;;5118487;27;20196;-76
2020/12/15 08:37:29;;;;;;;1.40;1.30;;;9.90;99.90;;;;;;5115302;27;20191;-75
2020/12/15 08:39:55;;;;;;;2.03;1.55;;;9.90;99.90;;;;;;5115538;27;20227;-75
2020/12/15 08:42:23;;;;;;;1.90;1.40;;;9.90;99.90;;;;;;5118353;27;20200;-76
2020/12/15 08:44:49;;;;;;;1.92;1.45;;;9.90;99.90;;;;;;5118046;27;20196;-75
2020/12/15 08:47:17;;;;;;;2.22;1.30;;;9.90;99.90;;;;;;5122571;27;20252;-74
2020/12/15 08:49:45;;;;;;;1.80;1.55;;;9.90;99.90;;;;;;5126919;27;20192;-74
2020/12/15 08:52:20;;;;;;;2.25;1.73;;;9.90;99.90;;;;;;5128239;27;20636;-75
2020/12/15 08:54:47;;;;;;;2.10;1.77;;;9.90;99.90;;;;;;5133222;27;20180;-74
2020/12/15 08:57:14;;;;;;;2.28;2.10;;;9.90;99.90;;;;;;5123889;27;20188;-74
2020/12/15 08:59:41;;;;;;;1.52;1.42;;;10.00;99.90;;;;;;5123232;27;20629;-76
2020/12/15 09:02:11;;;;;;;2.22;1.40;;;9.90;99.90;;;;;;5111999;28;20640;-73
2020/12/15 09:04:38;;;;;;;2.45;2.25;;;9.90;99.90;;;;;;5126895;27;20192;-73
2020/12/15 09:07:17;;;;;;;2.38;2.17;;;10.00;99.90;;;;;;5117590;27;20216;-73
2020/12/15 09:09:43;;;;;;;2.03;1.83;;;9.90;99.90;;;;;;5127400;27;20278;-73
2020/12/15 09:12:11;;;;;;;2.88;1.73;;;10.00;99.90;;;;;;5132450;27;20211;-75
2020/12/15 09:14:37;;;;;;;2.13;1.92;;;10.00;99.90;;;;;;5124039;27;20233;-75
2020/12/15 09:17:03;;;;;;;2.13;1.90;;;10.00;99.90;;;;;;5121638;28;20200;-76
2020/12/15 09:19:30;;;;;;;1.50;1.35;;;9.90;99.90;;;;;;5126377;27;20200;-75
2020/12/15 09:21:59;;;;;;;4.25;2.33;;;9.90;99.90;;;;;;5119088;27;20206;-76
2020/12/15 09:24:26;;;;;;;2.47;1.70;;;9.90;99.90;;;;;;5115398;28;20208;-75
2020/12/15 09:26:53;;;;;;;1.92;1.73;;;9.90;99.90;;;;;;5131842;27;20272;-75
2020/12/15 09:29:19;;;;;;;2.45;1.90;;;9.90;99.90;;;;;;5123937;27;20192;-75
2020/12/15 09:31:52;;;;;;;2.50;2.28;;;9.90;99.90;;;;;;5125324;27;20197;-75
2020/12/15 09:34:19;;;;;;;4.38;2.10;;;10.00;99.90;;;;;;5123311;28;20199;-74
2020/12/15 09:36:56;;;;;;;2.47;2.28;;;10.00;99.90;;;;;;5119885;28;20245;-74
2020/12/15 09:39:23;;;;;;;3.38;2.13;;;10.00;99.90;;;;;;5127406;27;20277;-74
2020/12/15 09:41:51;;;;;;;2.80;2.60;;;10.00;99.90;;;;;;5119423;28;20192;-73
2020/12/15 09:44:17;;;;;;;2.33;2.00;;;10.00;99.90;;;;;;5128197;27;20192;-74
2020/12/15 09:46:43;;;;;;;2.42;2.20;;;10.00;99.90;;;;;;5128021;27;20213;-75
2020/12/15 09:49:10;;;;;;;4.53;2.53;;;10.00;99.90;;;;;;5133566;27;20226;-76
2020/12/15 09:51:36;;;;;;;3.55;2.10;;;10.00;99.90;;;;;;5115288;27;20204;-74
2020/12/15 09:54:02;;;;;;;2.35;2.15;;;10.00;99.90;;;;;;5115349;28;20201;-74
2020/12/15 09:56:30;;;;;;;3.00;2.70;;;10.00;99.90;;;;;;5126303;28;20624;-74
2020/12/15 09:58:58;;;;;;;2.03;1.85;;;10.10;99.90;;;;;;5117899;28;20197;-74
2020/12/15 10:01:25;;;;;;;3.10;2.47;;;10.00;99.90;;;;;;5119240;28;20196;-74
2020/12/15 10:03:51;;;;;;;2.67;1.90;;;10.00;99.90;;;;;;5111623;28;20200;-73
2020/12/15 10:06:17;;;;;;;2.58;1.92;;;10.10;99.90;;;;;;5119793;28;20219;-73
2020/12/15 10:08:44;;;;;;;3.25;2.00;;;10.10;99.90;;;;;;5111824;28;20208;-73
2020/12/15 10:11:13;;;;;;;2.75;2.00;;;10.10;99.90;;;;;;5115388;28;20200;-73
2020/12/15 10:13:40;;;;;;;2.50;2.22;;;10.10;99.90;;;;;;5114393;28;20196;-74
2020/12/15 10:16:07;;;;;;;2.22;2.03;;;10.10;99.90;;;;;;5111965;28;20193;-73
2020/12/15 10:18:33;;;;;;;2.60;2.40;;;10.10;99.90;;;;;;5111211;28;20197;-73
2020/12/15 10:20:59;;;;;;;2.50;2.30;;;10.10;99.90;;;;;;5120257;28;20536;-73
2020/12/15 10:23:26;;;;;;;2.13;1.95;;;10.10;99.90;;;;;;5124515;28;20209;-73
2020/12/15 10:25:52;;;;;;;2.10;1.90;;;10.10;99.90;;;;;;5113765;28;20240;-73
2020/12/15 10:28:18;;;;;;;2.20;1.85;;;10.10;99.90;;;;;;5114378;28;20200;-73
2020/12/15 10:30:45;;;;;;;1.92;1.83;;;10.20;99.90;;;;;;5113351;28;20200;-74
2020/12/15 10:33:12;;;;;;;2.42;2.22;;;10.20;99.90;;;;;;5115307;28;20204;-73
2020/12/15 10:35:38;;;;;;;3.42;2.00;;;10.20;99.90;;;;;;5126926;27;20283;-73
2020/12/15 10:38:05;;;;;;;2.55;1.73;;;10.20;99.90;;;;;;5130883;27;20697;-73
2020/12/15 10:40:31;;;;;;;1.63;1.52;;;10.20;99.90;;;;;;5121348;27;20228;-74
2020/12/15 10:42:57;;;;;;;1.75;1.65;;;10.20;99.90;;;;;;5121516;27;20256;-73
2020/12/15 10:45:24;;;;;;;2.67;2.00;;;10.20;99.90;;;;;;5124426;27;20216;-74
2020/12/15 10:47:50;;;;;;;3.30;1.40;;;10.20;99.90;;;;;;5117442;27;20192;-74
2020/12/15 10:50:17;;;;;;;1.63;1.52;;;10.20;99.90;;;;;;5117374;27;20741;-73
2020/12/15 10:52:44;;;;;;;2.38;2.17;;;10.20;99.90;;;;;;5127757;27;20272;-74
2020/12/15 10:55:10;;;;;;;2.38;2.17;;;10.20;99.90;;;;;;5135426;27;20192;-74
2020/12/15 10:57:37;;;;;;;3.25;1.67;;;10.20;99.90;;;;;;5125174;27;20262;-74
2020/12/15 11:00:04;;;;;;;1.88;1.70;;;10.10;99.90;;;;;;5120440;27;20501;-74
2020/12/15 11:02:31;;;;;;;1.90;1.80;;;10.20;99.90;;;;;;5119345;27;20206;-74
2020/12/15 11:04:57;;;;;;;3.47;1.42;;;10.20;99.90;;;;;;5128908;27;20193;-73
2020/12/15 11:07:24;;;;;;;1.63;1.38;;;10.20;99.90;;;;;;5115561;27;20204;-74
2020/12/15 11:09:51;;;;;;;1.48;1.38;;;10.20;99.90;;;;;;5123047;27;20200;-73
2020/12/15 11:12:17;;;;;;;1.50;1.40;;;10.20;99.90;;;;;;5133215;27;20620;-74
2020/12/15 11:14:43;;;;;;;1.80;1.65;;;10.20;99.90;;;;;;5123039;27;20196;-74
2020/12/15 11:17:10;;;;;;;1.63;1.50;;;10.20;99.90;;;;;;5135008;27;20193;-76
2020/12/15 11:19:37;;;;;;;1.70;1.60;;;10.20;99.90;;;;;;5123678;27;20197;-74
2020/12/15 11:22:03;;;;;;;1.63;1.52;;;10.20;99.90;;;;;;5117876;27;20201;-74
2020/12/15 11:24:30;;;;;;;2.55;1.60;;;10.20;99.90;;;;;;5128391;27;20192;-75
2020/12/15 11:26:57;;;;;;;2.13;1.58;;;10.20;99.90;;;;;;5132756;27;20220;-73
2020/12/15 11:29:23;;;;;;;1.67;1.35;;;10.20;99.90;;;;;;5127971;27;20272;-73
2020/12/15 11:31:50;;;;;;;2.00;1.75;;;10.20;99.90;;;;;;5125918;27;20201;-75
2020/12/15 11:34:16;;;;;;;2.75;2.10;;;10.30;99.90;;;;;;5118808;27;20549;-76
2020/12/15 11:36:42;;;;;;;6.07;2.10;;;10.30;99.90;;;;;;5119666;27;20192;-77
2020/12/15 11:39:09;;;;;;;2.28;1.92;;;10.30;99.90;;;;;;5127407;27;20685;-76
2020/12/15 11:41:38;;;;;;;1.73;1.63;;;10.30;99.90;;;;;;5127111;27;20199;-76
2020/12/15 11:44:05;;;;;;;2.45;2.10;;;10.30;99.90;;;;;;5122796;27;20193;-75
2020/12/15 11:46:31;;;;;;;2.28;1.70;;;10.30;99.90;;;;;;5118555;27;20213;-73
2020/12/15 11:48:57;;;;;;;2.13;1.40;;;10.30;99.90;;;;;;5117053;27;20284;-73
2020/12/15 11:51:24;;;;;;;1.90;1.67;;;10.30;99.90;;;;;;5119909;27;20201;-71
2020/12/15 11:53:50;;;;;;;1.90;1.33;;;10.30;99.90;;;;;;5133134;27;20260;-73
2020/12/15 11:56:17;;;;;;;2.00;1.40;;;10.30;99.90;;;;;;5129289;27;20188;-75
2020/12/15 11:58:44;;;;;;;1.60;1.50;;;10.30;99.90;;;;;;5124578;27;20212;-73
2020/12/15 12:01:11;;;;;;;1.73;1.48;;;10.30;99.90;;;;;;5132119;27;20204;-75
2020/12/15 12:03:37;;;;;;;1.60;1.50;;;10.30;99.90;;;;;;5133119;27;20204;-73
2020/12/15 12:06:04;;;;;;;3.38;2.35;;;10.30;99.90;;;;;;5128109;27;20204;-73
2020/12/15 12:08:30;;;;;;;1.40;1.30;;;10.30;99.90;;;;;;5128594;27;20196;-74
2020/12/15 12:10:56;;;;;;;2.47;1.73;;;10.40;99.90;;;;;;5113303;27;20201;-76
2020/12/15 12:13:22;;;;;;;1.85;1.65;;;10.40;99.90;;;;;;5133173;27;20204;-78
2020/12/15 12:15:49;;;;;;;1.95;1.52;;;10.40;99.90;;;;;;5121625;27;20241;-73
2020/12/15 12:18:16;;;;;;;1.35;1.25;;;10.40;99.90;;;;;;5118500;27;20481;-73
2020/12/15 12:20:42;;;;;;;1.65;1.55;;;10.40;99.90;;;;;;5121398;27;20200;-74
2020/12/15 12:23:08;;;;;;;1.60;1.50;;;10.40;99.90;;;;;;5127353;27;20629;-74
2020/12/15 12:25:35;;;;;;;2.42;2.10;;;10.40;99.90;;;;;;5119966;27;20216;-74
2020/12/15 12:28:01;;;;;;;1.58;1.42;;;10.40;99.90;;;;;;5119673;27;20248;-75
2020/12/15 12:30:27;;;;;;;1.58;1.48;;;10.40;99.90;;;;;;5117051;27;20196;-74
2020/12/15 12:32:54;;;;;;;1.75;1.65;;;10.40;99.90;;;;;;5120076;27;20193;-75
2020/12/15 12:35:21;;;;;;;2.47;1.35;;;10.50;99.90;;;;;;5132017;27;20192;-75
2020/12/15 12:37:47;;;;;;;2.40;1.80;;;10.50;99.90;;;;;;5121011;27;20207;-75
2020/12/15 12:40:14;;;;;;;2.55;1.70;;;10.50;99.90;;;;;;5114276;27;20304;-74
2020/12/15 12:42:40;;;;;;;1.75;1.50;;;10.50;99.90;;;;;;5128530;27;20226;-74
2020/12/15 12:45:07;;;;;;;1.50;1.30;;;10.50;99.90;;;;;;5120703;27;20203;-74
2020/12/15 12:47:33;;;;;;;2.08;1.73;;;10.60;99.90;;;;;;5116040;27;20193;-74
2020/12/15 12:50:01;;;;;;;1.98;1.30;;;10.60;99.90;;;;;;5120947;27;20196;-73
2020/12/15 12:52:27;;;;;;;1.60;1.50;;;10.50;99.90;;;;;;5124719;27;20202;-73
2020/12/15 12:54:53;;;;;;;2.22;1.40;;;10.50;99.90;;;;;;5125326;27;20647;-74